Prestonsburg, Kentucky
Current Conditions -  °F | °C
As of 5:15 PM on Thursday 23 Oct 2014 (Local Time) from KSJS Reporting Station
Clear Clear  
Wind Chill: 56°   Ceiling: Unl
Heat Index: 56°   Visibility: 10mi
Dew Point: 42°   Wind: 0mph
Humidity: 60%   Direction: NA
Pressure: 30.14"   Gusts: NA
Location:  37.67°N, 82.77°W
Report Text: KSJS 232115Z AUTO 00000KT 10SM CLR 14/06 A3014 RMK AO2 T01350058
Loading
Personal Weather Stations






























Interactive Weather Map
Tropical Storm Tracking
New forecast layout! Learn more

10-Day Weather Forecast

Advertisements
Track Severe Weather on mobile